Time;durP1;ratioP1;P1;durP2;ratioP2;P2;SDS_P1;SDS_P2;PMS_P1;PMS_P2;Temp;Humidity;BMP_temperature;BMP_pressure;BME280_temperature;BME280_humidity;BME280_pressure;Samples;Min_cycle;Max_cycle;Signal;HPM_P1;HPM_P2
2022/06/12 00:00:11;;;;;;;5.53;2.17;;;;;;;17.46;69.74;100639.19;4975362;28;20077;-56
2022/06/12 00:02:58;;;;;;;8.30;3.00;;;;;;;17.47;69.67;100640.94;4960413;28;20414;-56
2022/06/12 00:05:45;;;;;;;9.07;2.72;;;;;;;17.46;69.57;100647.06;4960635;28;20045;-55
2022/06/12 00:08:32;;;;;;;8.00;2.90;;;;;;;17.46;69.79;100654.91;4961023;28;20414;-55
2022/06/12 00:11:19;;;;;;;4.18;2.33;;;;;;;17.45;69.69;100650.53;4960591;28;20053;-55
2022/06/12 00:14:04;;;;;;;8.52;3.40;;;;;;;17.45;69.32;100650.53;4960576;28;20419;-55
2022/06/12 00:16:52;;;;;;;6.78;2.30;;;;;;;17.44;69.49;100650.56;4960613;28;20517;-55
2022/06/12 00:19:37;;;;;;;3.70;2.65;;;;;;;17.43;69.82;100649.72;4974910;28;20141;-55
2022/06/12 00:22:21;;;;;;;9.73;3.38;;;;;;;17.43;69.76;100644.47;4960750;28;20100;-55
2022/06/12 00:25:09;;;;;;;5.60;3.45;;;;;;;17.42;69.75;100644.44;4960367;28;20513;-55
2022/06/12 00:27:53;;;;;;;7.88;3.05;;;;;;;17.42;69.67;100642.72;4974584;28;20045;-55
2022/06/12 00:30:37;;;;;;;7.28;2.80;;;;;;;17.42;69.48;100647.06;4975354;28;20141;-56
2022/06/12 00:33:22;;;;;;;5.70;2.53;;;;;;;17.42;69.56;100641.81;4974752;28;20046;-55
2022/06/12 00:36:07;;;;;;;6.63;2.60;;;;;;;17.41;69.69;100640.97;4974892;28;20185;-55
2022/06/12 00:38:51;;;;;;;6.20;2.85;;;;;;;17.41;69.63;100642.69;4974684;28;20100;-55
2022/06/12 00:41:37;;;;;;;4.38;2.35;;;;;;;17.40;69.60;100640.97;4974792;28;20141;-55
2022/06/12 00:44:31;;;;;;;9.52;2.63;;;;;;;17.40;69.31;100646.19;4960048;28;20049;-55
2022/06/12 00:47:16;;;;;;;3.55;2.40;;;;;;;17.39;69.55;100650.59;4974726;28;20049;-55
2022/06/12 00:50:05;;;;;;;9.85;3.05;;;;;;;17.40;69.50;100654.06;4960051;28;20045;-55
2022/06/12 00:52:52;;;;;;;7.82;2.42;;;;;;;17.38;69.59;100648.84;4974650;28;20513;-55
2022/06/12 00:55:48;;;;;;;5.43;3.15;;;;;;;17.38;69.36;100650.56;4960461;28;20089;-55
2022/06/12 00:58:38;;;;;;;4.68;2.70;;;;;;;17.36;69.52;100653.19;4960317;28;20081;-55
2022/06/12 01:01:30;;;;;;;7.22;2.90;;;;;;;17.35;69.39;100652.34;4959611;28;20144;-56
2022/06/12 01:07:21;;;;;;;7.18;3.13;;;;;;;17.33;69.44;100651.47;4978965;28;20417;-55
2022/06/12 01:10:09;;;;;;;5.30;2.53;;;;;;;17.34;69.55;100655.84;4978672;28;20058;-55
2022/06/12 01:13:13;;;;;;;5.35;2.72;;;;;;;17.33;69.23;100658.44;4963682;28;20046;-55
2022/06/12 01:16:01;;;;;;;6.15;2.75;;;;;;;17.32;69.41;100657.59;4964078;28;20113;-55
2022/06/12 01:18:53;;;;;;;4.65;2.47;;;;;;;17.31;69.65;100650.59;4978577;28;20049;-55
2022/06/12 01:21:42;;;;;;;6.78;2.50;;;;;;;17.32;69.29;100654.06;4963795;28;20596;-55
2022/06/12 01:24:57;;;;;;;13.68;3.45;;;;;;;17.29;69.42;100654.97;4963967;28;20119;-56
2022/06/12 01:28:19;;;;;;;5.75;2.55;;;;;;;17.28;69.33;100650.59;4963712;28;20050;-55
2022/06/12 01:31:06;;;;;;;7.88;3.25;;;;;;;17.27;69.32;100646.22;4977883;28;20038;-55
2022/06/12 01:34:10;;;;;;;5.82;2.38;;;;;;;17.26;69.09;100641.88;4977831;28;20049;-55
2022/06/12 01:36:57;;;;;;;5.50;2.65;;;;;;;17.25;69.13;100640.13;4963267;28;20050;-56
2022/06/12 01:39:44;;;;;;;5.40;2.38;;;;;;;17.24;69.00;100648.00;4977766;28;20537;-55
2022/06/12 01:42:51;;;;;;;6.65;2.85;;;;;;;17.23;69.14;100647.09;4978108;28;20041;-55
2022/06/12 01:45:55;;;;;;;5.45;2.67;;;;;;;17.22;68.75;100649.75;4977996;28;20093;-55
2022/06/12 01:48:49;;;;;;;5.88;2.60;;;;;;;17.20;68.89;100647.13;4963360;28;20049;-55
2022/06/12 01:51:41;;;;;;;10.52;3.28;;;;;;;17.19;68.90;100645.41;4963421;28;20182;-55
2022/06/12 01:54:56;;;;;;;6.20;2.50;;;;;;;17.17;68.77;100641.91;4963286;28;20565;-54
2022/06/12 01:58:06;;;;;;;;;;;;;;;17.14;68.90;100644.53;4978405;28;20125;-55
2022/06/12 02:01:01;;;;;;;5.72;2.85;;;;;;;17.12;68.90;100649.78;4963182;28;19936;-55
2022/06/12 02:03:54;;;;;;;6.20;2.78;;;;;;;17.11;68.72;100649.75;4963379;28;20418;-55
2022/06/12 02:06:57;;;;;;;4.88;2.53;;;;;;;17.10;68.73;100643.66;4963114;28;20054;-55
2022/06/12 02:10:17;;;;;;;7.30;2.63;;;;;;;17.08;68.61;100637.53;4962751;28;20101;-55
2022/06/12 02:13:32;;;;;;;5.13;2.70;;;;;;;17.07;68.68;100634.91;4976885;28;20046;-56
2022/06/12 02:16:22;;;;;;;5.30;2.30;;;;;;;17.05;68.61;100637.53;4962835;28;20054;-55
2022/06/12 02:19:19;;;;;;;5.60;2.67;;;;;;;17.04;68.61;100639.31;4963142;28;20058;-55
2022/06/12 02:22:17;;;;;;;6.60;2.80;;;;;;;17.03;68.63;100640.19;4962589;28;20058;-55
2022/06/12 02:25:15;;;;;;;6.72;2.42;;;;;;;17.02;68.54;100637.53;4977220;28;20457;-55
2022/06/12 02:28:11;;;;;;;9.02;2.20;;;;;;;17.02;68.65;100638.44;4962734;28;20054;-55
2022/06/12 02:31:01;;;;;;;4.85;2.25;;;;;;;17.02;68.62;100630.56;4962414;28;20049;-55
2022/06/12 02:33:52;;;;;;;6.43;2.67;;;;;;;17.02;68.46;100635.81;4962796;28;20402;-55
2022/06/12 02:36:45;;;;;;;6.40;2.70;;;;;;;17.01;68.51;100635.78;4962357;28;20117;-55
2022/06/12 02:39:36;;;;;;;5.75;2.00;;;;;;;17.01;68.54;100628.81;4962126;28;20068;-55
2022/06/12 02:42:25;;;;;;;5.82;2.40;;;;;;;17.01;68.36;100635.78;4962656;28;20149;-55
2022/06/12 02:45:20;;;;;;;5.68;2.60;;;;;;;17.00;68.44;100634.03;4962258;28;20050;-55
2022/06/12 02:48:06;;;;;;;7.65;3.08;;;;;;;16.98;68.34;100636.69;4976386;28;20121;-55
2022/06/12 02:51:09;;;;;;;6.07;2.63;;;;;;;16.98;68.53;100627.94;4962110;28;20113;-55
2022/06/12 02:54:00;;;;;;;4.47;2.30;;;;;;;16.98;68.35;100634.06;4977009;28;20097;-56
2022/06/12 02:57:04;;;;;;;5.75;2.40;;;;;;;16.97;68.48;100629.69;4962063;28;20466;-55
2022/06/12 03:00:21;;;;;;;6.65;3.20;;;;;;;16.96;68.43;100622.72;4961994;28;20109;-55
2022/06/12 03:03:51;;;;;;;6.80;2.55;;;;;;;16.96;68.15;100625.34;4976915;28;20457;-55
2022/06/12 03:06:40;;;;;;;10.50;2.88;;;;;;;16.94;68.29;100624.44;4976056;28;20115;-56
2022/06/12 03:09:24;;;;;;;6.25;2.53;;;;;;;16.95;68.55;100626.22;4976555;28;20058;-55
2022/06/12 03:12:08;;;;;;;7.90;2.80;;;;;;;16.94;68.32;100627.03;4976178;28;20074;-55
2022/06/12 03:14:52;;;;;;;;;;;;;;;16.93;68.29;100629.69;4962003;28;20096;-56
2022/06/12 03:17:36;;;;;;;4.75;2.28;;;;;;;16.90;68.25;100631.41;4976057;28;19921;-56
2022/06/12 03:20:24;;;;;;;5.50;2.40;;;;;;;16.90;68.32;100636.66;4976351;28;20046;-55
2022/06/12 03:23:32;;;;;;;6.20;2.47;;;;;;;16.89;68.31;100637.53;4975824;28;20113;-55
2022/06/12 03:26:39;;;;;;;6.78;2.58;;;;;;;16.87;68.24;100638.41;4938075;28;20045;-55
2022/06/12 03:29:38;;;;;;;7.60;2.50;;;;;;;16.87;67.92;100633.19;4961731;28;20149;-55
2022/06/12 03:32:41;;;;;;;5.90;2.40;;;;;;;16.86;68.08;100645.38;4961398;28;20100;-55
2022/06/12 03:35:31;;;;;;;4.40;1.90;;;;;;;16.86;68.04;100649.75;4975864;28;20050;-55
2022/06/12 03:38:36;;;;;;;10.75;2.85;;;;;;;16.84;67.90;100649.72;4975679;28;20054;-55
2022/06/12 03:41:27;;;;;;;4.72;2.20;;;;;;;16.85;68.02;100650.63;4961317;28;20486;-55
2022/06/12 03:44:44;;;;;;;9.82;2.95;;;;;;;16.83;68.02;100653.22;4961060;28;20110;-55
2022/06/12 03:47:32;;;;;;;7.00;2.67;;;;;;;16.83;68.10;100653.22;4975656;28;20053;-55
2022/06/12 03:50:30;;;;;;;7.80;2.75;;;;;;;16.82;67.99;100648.84;4960981;28;20054;-55
2022/06/12 03:53:24;;;;;;;3.78;2.22;;;;;;;16.82;67.77;100645.38;4975235;28;20046;-55
2022/06/12 03:59:18;;;;;;;4.63;2.00;;;;;;;16.79;68.07;100653.22;4975059;28;20057;-55
2022/06/12 04:02:05;;;;;;;3.90;2.30;;;;;;;16.78;67.96;100644.53;4960713;28;20062;-55
2022/06/12 04:04:52;;;;;;;7.70;2.70;;;;;;;16.77;67.67;100644.50;4974958;28;20050;-55
2022/06/12 04:07:45;;;;;;;8.40;2.42;;;;;;;16.77;67.75;100652.34;4961273;28;20140;-56
2022/06/12 04:10:32;;;;;;;4.75;2.42;;;;;;;16.74;67.96;100656.72;4960910;28;20050;-55
2022/06/12 04:13:22;;;;;;;5.68;2.10;;;;;;;16.74;67.75;100654.09;4975127;28;20098;-54
2022/06/12 04:16:25;;;;;;;5.25;2.38;;;;;;;16.74;67.82;100661.09;4960692;28;20042;-55
2022/06/12 04:19:15;;;;;;;6.20;2.63;;;;;;;16.73;67.90;100651.50;4974954;28;20517;-56
2022/06/12 04:22:14;;;;;;;7.47;2.35;;;;;;;16.72;67.85;100661.09;4960356;28;20065;-57
2022/06/12 04:25:06;;;;;;;5.88;2.40;;;;;;;16.72;67.56;100663.72;4960628;28;20057;-55
2022/06/12 04:27:49;;;;;;;7.85;2.53;;;;;;;16.72;67.58;100661.09;4960866;28;20101;-55
2022/06/12 04:30:37;;;;;;;6.07;2.25;;;;;;;16.71;67.84;100648.00;4974676;28;20057;-55
2022/06/12 04:33:24;;;;;;;6.85;2.45;;;;;;;16.71;67.86;100648.00;4960255;28;20125;-55
2022/06/12 04:36:12;;;;;;;5.88;2.08;;;;;;;16.69;67.62;100645.38;4960542;28;20097;-55
2022/06/12 04:38:57;;;;;;;5.82;2.63;;;;;;;16.68;67.66;100648.88;4960114;28;20097;-56
2022/06/12 04:41:43;;;;;;;;;;;;;;;16.64;67.34;100657.59;4960614;28;20057;-55
2022/06/12 04:44:28;;;;;;;5.43;2.40;;;;;;;16.62;67.73;100661.94;4960018;28;19925;-55
2022/06/12 04:47:16;;;;;;;8.10;2.40;;;;;;;16.61;67.58;100661.94;4960491;28;20053;-57
2022/06/12 04:50:00;;;;;;;6.65;2.47;;;;;;;16.62;67.66;100658.47;4960467;28;20070;-56
2022/06/12 04:52:44;;;;;;;8.93;2.92;;;;;;;16.62;67.75;100666.31;4960259;28;20137;-57
2022/06/12 04:55:34;;;;;;;5.65;2.20;;;;;;;16.60;67.64;100663.69;4960342;28;20062;-57
2022/06/12 04:58:21;;;;;;;6.38;2.65;;;;;;;16.61;67.49;100667.19;4960053;28;20127;-57
2022/06/12 05:01:06;;;;;;;9.60;2.47;;;;;;;16.61;67.60;100661.94;4960003;28;20046;-56
2022/06/12 05:03:56;;;;;;;6.65;2.88;;;;;;;16.59;67.61;100654.97;4974629;28;20049;-57
2022/06/12 05:06:44;;;;;;;8.02;2.88;;;;;;;16.58;67.58;100654.97;4960110;28;20068;-55
2022/06/12 05:09:31;;;;;;;7.07;2.67;;;;;;;16.58;67.57;100655.84;4974122;28;20053;-56
2022/06/12 05:12:15;;;;;;;3.97;2.20;;;;;;;16.57;67.63;100656.72;4959553;28;20050;-55
2022/06/12 05:14:59;;;;;;;4.47;2.28;;;;;;;16.56;67.29;100654.97;4974457;28;20410;-55
2022/06/12 05:17:49;;;;;;;6.93;2.45;;;;;;;16.56;67.36;100659.34;4959954;28;20422;-54
2022/06/12 05:20:38;;;;;;;6.07;2.35;;;;;;;16.56;67.58;100656.72;4959788;28;20054;-55
2022/06/12 05:23:24;;;;;;;7.53;2.67;;;;;;;16.54;67.60;100650.59;4960149;28;20057;-55
2022/06/12 05:26:13;;;;;;;8.00;2.53;;;;;;;16.55;67.57;100652.34;4960013;28;20132;-55
2022/06/12 05:29:03;;;;;;;6.90;2.70;;;;;;;16.56;67.49;100660.19;4959577;28;20518;-55
2022/06/12 05:31:52;;;;;;;6.85;2.47;;;;;;;16.57;67.55;100659.31;4960022;28;20053;-55
2022/06/12 05:34:39;;;;;;;7.57;2.47;;;;;;;16.57;67.49;100651.47;4959744;28;20070;-55
2022/06/12 05:37:23;;;;;;;10.48;2.13;;;;;;;16.56;67.64;100654.09;4974078;28;20050;-56
2022/06/12 05:40:12;;;;;;;5.68;2.63;;;;;;;16.56;67.37;100654.97;4974040;28;20101;-55
2022/06/12 05:43:05;;;;;;;6.47;2.67;;;;;;;16.57;67.55;100658.47;4959832;28;20089;-57
2022/06/12 05:45:52;;;;;;;7.45;2.50;;;;;;;16.57;67.64;100661.09;4974745;28;20069;-57
2022/06/12 05:48:37;;;;;;;4.88;2.30;;;;;;;16.57;67.58;100666.31;4974687;28;20057;-56
2022/06/12 05:51:27;;;;;;;4.82;2.28;;;;;;;16.55;67.58;100663.69;4963523;28;20042;-56
2022/06/12 05:54:14;;;;;;;6.45;2.50;;;;;;;16.51;67.50;100669.78;4963705;28;20572;-56
2022/06/12 05:57:06;;;;;;;5.88;2.50;;;;;;;16.50;67.39;100669.78;4977330;28;20054;-56
2022/06/12 05:59:53;;;;;;;8.38;2.63;;;;;;;16.51;67.37;100668.91;4963434;28;20059;-56
2022/06/12 06:02:40;;;;;;;6.15;2.40;;;;;;;16.49;67.58;100671.53;4962713;28;20183;-57
2022/06/12 06:05:32;;;;;;;7.13;2.75;;;;;;;16.48;67.47;100666.28;4977380;28;20054;-56
2022/06/12 06:08:23;;;;;;;7.07;2.65;;;;;;;16.47;67.44;100664.53;4962763;28;20050;-56
2022/06/12 06:11:12;;;;;;;7.65;2.45;;;;;;;16.46;67.25;100662.78;4977609;28;20455;-56
2022/06/12 06:13:57;;;;;;;10.35;2.83;;;;;;;16.41;67.19;100671.53;4977560;28;20049;-56
2022/06/12 06:16:49;;;;;;;9.40;3.00;;;;;;;16.41;67.28;100668.03;4977494;28;20054;-55
2022/06/12 06:19:33;;;;;;;6.97;2.40;;;;;;;16.41;67.21;100668.91;4977398;28;20597;-55
2022/06/12 06:22:25;;;;;;;4.95;2.35;;;;;;;16.39;67.18;100681.13;4977404;28;20057;-55
2022/06/12 06:25:12;;;;;;;7.35;3.08;;;;;;;16.38;67.26;100679.38;4962524;28;20046;-55
2022/06/12 06:28:03;;;;;;;7.43;3.17;;;;;;;16.38;67.33;100683.69;4962145;28;20173;-56
2022/06/12 06:30:50;;;;;;;9.48;3.47;;;;;;;16.39;67.18;100681.13;4962907;28;20041;-55
2022/06/12 06:33:34;;;;;;;6.05;2.83;;;;;;;16.36;67.08;100677.59;4976553;28;20105;-55
2022/06/12 06:36:22;;;;;;;8.50;2.38;;;;;;;16.37;67.13;100675.00;4976858;28;20506;-55
2022/06/12 06:39:06;;;;;;;9.55;3.13;;;;;;;16.36;67.12;100674.97;4977063;28;20125;-55
2022/06/12 06:41:50;;;;;;;;;;;;;;;16.31;66.83;100688.06;4962435;28;20105;-55
2022/06/12 06:47:40;;;;;;;7.03;2.95;;;;;;;16.32;67.19;100691.56;4976837;28;20481;-54
2022/06/12 06:50:28;;;;;;;8.80;3.20;;;;;;;16.32;67.04;100684.56;4962522;28;20074;-55
2022/06/12 06:53:16;;;;;;;9.27;3.75;;;;;;;16.32;67.16;100681.09;4961824;28;20474;-56
2022/06/12 06:56:02;;;;;;;7.93;2.85;;;;;;;16.32;67.04;100684.56;4976702;28;20053;-56
2022/06/12 06:58:52;;;;;;;11.25;3.42;;;;;;;16.30;66.99;100694.16;4961813;28;20205;-57
2022/06/12 07:01:39;;;;;;;10.00;3.20;;;;;;;16.29;67.03;100688.06;4960885;28;20070;-54
2022/06/12 07:04:23;;;;;;;11.23;3.28;;;;;;;16.29;66.90;100685.44;4976551;28;20134;-57
2022/06/12 07:07:08;;;;;;;11.52;3.25;;;;;;;16.27;66.88;100691.56;4976837;28;20057;-57
2022/06/12 07:09:58;;;;;;;11.65;2.55;;;;;;;16.31;66.93;100688.06;4962007;28;20163;-57
2022/06/12 07:12:49;;;;;;;7.68;3.22;;;;;;;16.34;67.06;100692.44;4976247;28;20521;-57
2022/06/12 07:15:36;;;;;;;14.52;4.05;;;;;;;16.32;66.99;100692.41;4976376;28;20057;-57
2022/06/12 07:18:25;;;;;;;12.15;3.63;;;;;;;16.34;67.07;100695.06;4961826;28;20109;-56
2022/06/12 07:21:10;;;;;;;12.77;3.55;;;;;;;16.33;67.02;100688.06;4976573;28;20117;-57
2022/06/12 07:23:54;;;;;;;11.60;3.75;;;;;;;16.34;67.03;100700.28;4961343;28;20046;-57
2022/06/12 07:26:41;;;;;;;8.60;3.65;;;;;;;16.32;66.99;100697.66;4976139;28;20418;-57
2022/06/12 07:29:28;;;;;;;10.45;3.20;;;;;;;16.34;67.08;100706.38;4976178;28;20130;-56
2022/06/12 07:32:12;;;;;;;13.90;3.97;;;;;;;16.35;67.04;100702.03;4976114;28;20104;-57
2022/06/12 07:34:58;;;;;;;18.55;4.50;;;;;;;16.34;66.83;100702.91;4961274;28;20049;-56
2022/06/12 07:37:46;;;;;;;11.68;3.90;;;;;;;16.33;67.13;100701.16;4976022;28;20548;-56
2022/06/12 07:40:41;;;;;;;13.60;4.07;;;;;;;16.34;66.75;100706.38;4960821;28;20419;-57
2022/06/12 07:43:28;;;;;;;12.30;3.85;;;;;;;16.36;66.95;100704.63;4975547;28;20530;-56
2022/06/12 07:46:15;;;;;;;14.70;3.78;;;;;;;16.38;67.06;100697.69;4975706;28;20054;-56
2022/06/12 07:49:02;;;;;;;14.63;4.28;;;;;;;16.39;66.87;100696.81;4961429;28;20109;-56
2022/06/12 07:51:49;;;;;;;12.35;4.13;;;;;;;16.41;67.13;100691.56;4961139;28;20513;-56
2022/06/12 07:54:36;;;;;;;16.52;4.22;;;;;;;16.40;67.09;100693.31;4975542;28;20495;-56
2022/06/12 07:57:23;;;;;;;20.40;4.35;;;;;;;16.43;66.98;100689.81;4961207;28;20054;-57
2022/06/12 08:00:13;;;;;;;10.65;4.70;;;;;;;16.44;67.12;100692.44;4961069;28;20053;-56
2022/06/12 08:02:59;;;;;;;12.88;4.63;;;;;;;16.44;66.90;100697.66;4975286;28;20081;-56
2022/06/12 08:05:48;;;;;;;9.90;4.47;;;;;;;16.47;67.10;100690.69;4961062;28;20049;-57
2022/06/12 08:08:35;;;;;;;17.75;4.70;;;;;;;16.46;66.96;100692.47;4961092;28;20085;-56
2022/06/12 08:11:25;;;;;;;12.10;3.92;;;;;;;16.46;67.05;100692.47;4960187;28;20069;-56
2022/06/12 08:14:16;;;;;;;14.80;4.80;;;;;;;16.46;67.01;100695.06;4960883;28;20049;-56
2022/06/12 08:17:00;;;;;;;12.85;3.63;;;;;;;16.46;66.97;100689.84;4960995;28;20174;-56
2022/06/12 08:22:50;;;;;;;13.32;4.15;;;;;;;16.49;67.15;100695.09;4975281;28;20173;-56
2022/06/12 08:25:38;;;;;;;13.07;4.43;;;;;;;16.50;67.05;100696.84;4960584;28;20062;-56
2022/06/12 08:28:30;;;;;;;11.52;4.13;;;;;;;16.51;67.06;100692.47;4975389;28;20046;-56
2022/06/12 08:31:24;;;;;;;14.98;4.47;;;;;;;16.52;67.28;100694.22;4960621;28;20049;-57
2022/06/12 08:34:22;;;;;;;13.50;4.70;;;;;;;16.52;67.02;100691.59;4960182;28;20046;-56
2022/06/12 08:37:15;;;;;;;11.73;4.03;;;;;;;16.54;67.30;100689.84;4975204;28;20140;-57
2022/06/12 08:40:00;;;;;;;10.25;3.95;;;;;;;16.56;67.09;100690.72;4960212;28;20123;-56
2022/06/12 08:43:19;;;;;;;9.50;3.90;;;;;;;16.57;67.21;100684.63;4960310;28;20422;-56
2022/06/12 08:46:19;;;;;;;13.43;3.97;;;;;;;16.59;67.32;100682.88;4974747;28;20190;-57
2022/06/12 08:49:24;;;;;;;11.50;4.55;;;;;;;16.61;67.16;100681.13;4974587;28;20057;-56
2022/06/12 08:52:24;;;;;;;11.23;4.65;;;;;;;16.63;67.39;100679.38;4974873;28;20093;-57
2022/06/12 08:55:19;;;;;;;16.02;4.75;;;;;;;16.64;67.42;100673.28;4974636;28;20545;-56
2022/06/12 08:58:39;;;;;;;;;;;;;;;16.63;67.32;100661.06;4974548;28;20054;-56
2022/06/12 09:01:23;;;;;;;15.13;5.07;;;;;;;16.66;67.50;100663.69;4877172;29;19923;-56
2022/06/12 09:04:13;;;;;;;;;;;;;;;16.68;67.41;100661.97;4954663;29;20047;-57
2022/06/12 09:07:18;;;;;;;29.90;5.20;;;;;;;16.71;67.31;100668.94;4954151;29;19921;-56
2022/06/12 09:10:14;;;;;;;13.05;4.25;;;;;;;16.72;67.36;100663.72;4954177;29;20094;-56
2022/06/12 09:13:30;;;;;;;17.02;4.97;;;;;;;16.74;67.30;100664.56;4954147;29;20058;-57
2022/06/12 09:16:51;;;;;;;10.60;3.80;;;;;;;16.78;67.43;100654.09;4954024;29;20091;-56
2022/06/12 09:20:06;;;;;;;12.95;4.82;;;;;;;16.79;67.38;100654.13;4954352;29;20518;-57
2022/06/12 09:23:16;;;;;;;8.82;4.45;;;;;;;16.81;67.38;100654.09;4954077;28;20054;-56
2022/06/12 09:26:34;;;;;;;11.73;4.15;;;;;;;16.83;67.28;100649.75;4958831;29;20118;-56
2022/06/12 09:29:56;;;;;;;10.88;3.78;;;;;;;16.83;67.31;100647.97;4957546;29;20057;-57
2022/06/12 09:33:08;;;;;;;14.23;4.75;;;;;;;16.85;67.44;100645.38;4955392;28;20427;-56
2022/06/12 09:36:26;;;;;;;10.88;3.92;;;;;;;16.88;67.35;100648.00;4959205;29;20105;-57
2022/06/12 09:39:38;;;;;;;13.05;3.85;;;;;;;16.88;67.28;100646.25;4958342;29;20054;-56
2022/06/12 09:42:34;;;;;;;11.98;4.28;;;;;;;16.90;67.43;100646.22;4957881;29;20407;-57
2022/06/12 09:45:29;;;;;;;13.98;4.50;;;;;;;16.92;67.61;100644.50;4959051;29;20195;-56
2022/06/12 09:48:36;;;;;;;16.63;4.05;;;;;;;16.94;67.48;100642.75;4958731;29;20046;-57
2022/06/12 09:51:38;;;;;;;11.95;3.45;;;;;;;16.96;67.34;100637.56;4958398;29;20054;-56
2022/06/12 09:54:43;;;;;;;11.15;3.92;;;;;;;16.98;67.52;100634.06;4957793;29;20059;-57
2022/06/12 09:57:39;;;;;;;14.38;4.45;;;;;;;16.99;67.49;100638.44;4957459;29;20045;-56
2022/06/12 10:01:12;;;;;;;10.45;4.18;;;;;;;17.01;67.18;100639.31;4957292;29;20051;-57
2022/06/12 10:04:09;;;;;;;12.75;4.95;;;;;;;17.02;67.38;100635.81;4918045;29;20047;-56
2022/06/12 10:06:58;;;;;;;11.63;3.95;;;;;;;17.03;67.37;100639.28;4904849;29;20051;-58
2022/06/12 10:09:49;;;;;;;15.25;4.10;;;;;;;17.04;67.47;100636.69;4957624;29;20054;-56
2022/06/12 10:12:43;;;;;;;12.75;3.72;;;;;;;17.07;67.39;100637.53;4957404;29;20041;-56
2022/06/12 10:15:37;;;;;;;13.98;4.47;;;;;;;17.08;67.44;100636.66;4958461;29;20090;-56
2022/06/12 10:18:35;;;;;;;17.13;4.47;;;;;;;17.12;67.51;100641.03;4958054;29;20187;-56
2022/06/12 10:21:27;;;;;;;14.63;3.78;;;;;;;17.13;67.42;100646.25;4958131;29;20562;-56
2022/06/12 10:24:15;;;;;;;12.70;4.53;;;;;;;17.15;67.35;100639.25;4956832;29;20046;-57
2022/06/12 10:27:17;;;;;;;16.25;3.85;;;;;;;17.15;67.33;100641.88;4957285;29;20406;-56
2022/06/12 10:30:21;;;;;;;13.40;3.95;;;;;;;17.17;67.30;100634.03;4956659;29;20062;-57
2022/06/12 10:33:18;;;;;;;11.60;4.63;;;;;;;17.16;67.43;100637.53;4957543;29;20121;-56
2022/06/12 10:36:07;;;;;;;12.50;4.15;;;;;;;17.18;67.42;100627.94;4957709;28;20182;-56
2022/06/12 10:39:05;;;;;;;11.40;4.85;;;;;;;17.17;67.30;100634.03;4956643;29;20053;-57
2022/06/12 10:42:00;;;;;;;15.13;3.83;;;;;;;17.18;67.49;100627.94;4956413;29;20059;-56
2022/06/12 10:45:01;;;;;;;13.77;4.38;;;;;;;17.19;67.61;100632.28;4957857;29;20122;-57
2022/06/12 10:47:52;;;;;;;13.38;4.50;;;;;;;17.20;67.51;100631.41;4957714;29;20057;-56
2022/06/12 10:51:02;;;;;;;13.20;4.15;;;;;;;17.22;67.40;100634.03;4957576;29;20050;-55
2022/06/12 10:53:59;;;;;;;10.73;3.78;;;;;;;17.22;67.65;100634.88;4956334;29;20574;-57
2022/06/12 10:57:09;;;;;;;15.88;4.60;;;;;;;17.22;67.53;100623.56;4957011;29;20094;-57
2022/06/12 11:00:13;;;;;;;13.23;3.75;;;;;;;17.23;67.40;100622.69;4957381;29;20129;-56
2022/06/12 11:03:14;;;;;;;12.77;4.13;;;;;;;17.23;67.33;100623.53;4970642;28;20516;-56
2022/06/12 11:06:20;;;;;;;10.07;3.83;;;;;;;17.21;67.54;100614.81;4962133;28;20118;-56
2022/06/12 11:09:31;;;;;;;9.60;3.75;;;;;;;17.23;67.38;100612.19;4976100;28;20057;-56
2022/06/12 11:12:38;;;;;;;12.38;4.45;;;;;;;17.22;67.95;100611.31;4961847;28;20093;-56
2022/06/12 11:15:46;;;;;;;13.70;3.90;;;;;;;17.23;67.55;100606.97;4961992;28;20057;-56
2022/06/12 11:19:00;;;;;;;12.32;3.72;;;;;;;17.24;67.50;100598.22;4961602;28;20058;-57
2022/06/12 11:21:52;;;;;;;13.32;3.97;;;;;;;17.25;67.38;100592.97;4976149;28;20050;-56
2022/06/12 11:24:50;;;;;;;12.20;3.83;;;;;;;17.26;67.35;100592.09;4961586;28;20093;-56
2022/06/12 11:27:47;;;;;;;11.40;3.72;;;;;;;17.27;67.41;100588.59;4961845;28;20050;-56
2022/06/12 11:30:49;;;;;;;12.40;4.13;;;;;;;17.30;67.53;100591.22;4960942;28;20046;-56
2022/06/12 11:33:43;;;;;;;13.02;3.90;;;;;;;17.33;67.39;100600.81;4961235;28;20054;-55
2022/06/12 11:36:47;;;;;;;9.95;3.55;;;;;;;17.31;67.19;100594.69;4961507;28;20134;-55
2022/06/12 11:39:57;;;;;;;7.90;3.17;;;;;;;17.30;67.42;100595.56;4975644;28;20414;-55
2022/06/12 11:43:11;;;;;;;10.25;3.35;;;;;;;17.28;67.40;100581.63;4961164;28;20120;-55
2022/06/12 11:46:31;;;;;;;9.60;4.15;;;;;;;17.27;67.42;100583.38;4960795;28;20105;-55
2022/06/12 11:49:30;;;;;;;8.75;3.63;;;;;;;17.25;67.23;100579.88;4960987;28;20046;-56
2022/06/12 11:52:33;;;;;;;12.90;3.95;;;;;;;17.25;67.25;100574.63;4961301;28;20054;-55
2022/06/12 11:55:38;;;;;;;9.90;3.33;;;;;;;17.26;67.41;100575.53;4975546;28;20510;-55
2022/06/12 11:58:45;;;;;;;12.05;3.83;;;;;;;17.25;67.68;100571.16;4960829;28;20054;-55
2022/06/12 12:02:10;;;;;;;9.85;3.40;;;;;;;17.24;67.28;100569.41;4974912;28;20570;-56
2022/06/12 12:05:21;;;;;;;9.85;3.65;;;;;;;17.24;67.43;100574.66;4960979;28;20528;-55
2022/06/12 12:08:42;;;;;;;9.82;3.80;;;;;;;17.22;67.20;100569.41;4960633;28;20572;-57
2022/06/12 12:11:42;;;;;;;8.18;3.15;;;;;;;17.25;67.24;100577.25;4975464;28;20573;-55
2022/06/12 12:14:37;;;;;;;8.30;2.90;;;;;;;17.26;67.45;100567.66;4975098;28;20046;-55
2022/06/12 12:17:35;;;;;;;15.88;4.00;;;;;;;17.27;67.33;100565.03;4975184;28;20414;-55
2022/06/12 12:20:39;;;;;;;8.60;3.88;;;;;;;17.29;67.34;100568.53;4960829;28;20046;-55
2022/06/12 12:23:27;;;;;;;8.73;3.42;;;;;;;17.30;67.41;100572.00;4975146;28;20101;-55
2022/06/12 12:26:37;;;;;;;12.68;3.85;;;;;;;17.29;67.38;100555.44;4974910;28;20061;-55
2022/06/12 12:29:34;;;;;;;12.93;3.85;;;;;;;17.31;67.40;100565.88;4960179;28;20049;-56
2022/06/12 12:32:22;;;;;;;15.60;3.55;;;;;;;17.33;67.33;100559.78;4974504;28;20148;-55
2022/06/12 12:41:11;;;;;;;8.50;3.03;;;;;;;17.34;67.52;100555.41;4960592;28;20054;-55
2022/06/12 12:41:40;;;;;;;6.63;2.80;;;;;;;17.34;67.27;100547.53;4974738;28;20046;-55
2022/06/12 12:44:46;;;;;;;10.63;3.72;;;;;;;17.34;67.38;100552.78;4960432;28;20046;-55
2022/06/12 12:47:30;;;;;;;14.13;3.60;;;;;;;17.34;67.35;100551.06;4960509;28;20132;-54
2022/06/12 12:50:17;;;;;;;9.13;3.72;;;;;;;17.35;67.15;100542.31;4974884;28;20054;-55
2022/06/12 12:53:01;;;;;;;9.05;3.13;;;;;;;17.37;67.18;100539.69;4960280;28;20499;-55
2022/06/12 12:56:00;;;;;;;11.82;3.83;;;;;;;17.39;67.27;100537.03;4974747;28;20053;-55
2022/06/12 12:59:07;;;;;;;7.68;3.78;;;;;;;17.39;67.17;100540.56;4960119;28;20045;-55
2022/06/12 13:01:51;;;;;;;12.13;4.03;;;;;;;17.40;67.43;100531.81;4960021;28;20057;-55
2022/06/12 13:04:35;;;;;;;;;;;;;;;17.40;67.14;100536.16;4974845;28;20045;-55
2022/06/12 13:07:49;;;;;;;9.75;3.53;;;;;;;17.40;67.30;100517.81;4960130;28;19929;-56
2022/06/12 13:10:54;;;;;;;11.07;3.83;;;;;;;17.39;67.39;100513.47;4974134;28;20053;-55
2022/06/12 13:13:42;;;;;;;8.85;3.35;;;;;;;17.40;67.21;100517.81;4959854;28;20569;-56
2022/06/12 13:16:32;;;;;;;10.43;3.47;;;;;;;17.39;67.23;100522.22;4974868;28;20096;-55
2022/06/12 13:19:41;;;;;;;8.57;3.40;;;;;;;17.41;67.03;100516.94;4960146;28;20054;-55
2022/06/12 13:22:40;;;;;;;8.63;3.05;;;;;;;17.42;66.77;100508.22;4960196;28;20058;-55
2022/06/12 13:25:32;;;;;;;8.00;3.63;;;;;;;17.43;67.05;100513.47;4960127;28;20406;-59
2022/06/12 13:28:27;;;;;;;12.95;3.80;;;;;;;17.44;66.96;100509.94;4959755;28;20053;-56
2022/06/12 13:31:20;;;;;;;9.13;3.28;;;;;;;17.45;66.98;100503.81;4974386;28;20053;-55
2022/06/12 13:34:04;;;;;;;10.30;3.30;;;;;;;17.47;66.93;100509.06;4973929;28;20042;-54
2022/06/12 13:36:50;;;;;;;8.65;3.75;;;;;;;17.46;66.86;100502.94;4974518;28;20113;-55
2022/06/12 13:39:45;;;;;;;9.85;3.67;;;;;;;17.47;66.83;100509.94;4959675;28;20050;-54
2022/06/12 13:42:29;;;;;;;8.13;3.30;;;;;;;17.48;66.76;100502.94;4960275;28;20101;-55
2022/06/12 13:45:21;;;;;;;9.77;3.25;;;;;;;17.48;66.81;100501.19;4974060;28;20462;-56